Terminal Aerodrome Forecast
Issued by NWS Sioux Falls, SD

Home | Current Version | Previous Version | Text Only | Print | Product List | Glossary On
Versions: 1 2 3 4 5 6 7 8 9 10 11 12 13 14 15 16 17 18 19 20
000
FTUS43 KFSD 270520
TAFFSD
TAF
KFSD 270520Z 2706/2806 13007KT P6SM SCT100 BKN200
     FM271400 15011KT P6SM VCSH SCT090 BKN120
     FM271700 14013G19KT P6SM BKN150
     FM272300 12013KT P6SM -SHRA SCT030 OVC110
     FM280200 10011KT 3SM SHRA BKN020 OVC035=

USA.gov is the U.S. government's official web portal to all federal, state and local government web resources and services.